createdAt,value
2018-07-12T00:01:48.369Z,11.90
2018-07-12T00:04:15.767Z,11.90
2018-07-12T00:06:43.140Z,11.90
2018-07-12T00:09:10.491Z,11.90
2018-07-12T00:11:38.670Z,11.90
2018-07-12T00:14:06.004Z,11.90
2018-07-12T00:16:33.370Z,11.80
2018-07-12T00:19:00.704Z,11.80
2018-07-12T00:23:55.675Z,11.70
2018-07-12T00:26:23.040Z,11.70
2018-07-12T00:28:50.383Z,11.70
2018-07-12T00:31:17.794Z,11.70
2018-07-12T00:33:45.218Z,11.70
2018-07-12T00:36:12.578Z,11.60
2018-07-12T00:38:39.920Z,11.60
2018-07-12T00:41:07.283Z,11.50
2018-07-12T00:43:34.687Z,11.50
2018-07-12T00:46:02.023Z,11.40
2018-07-12T00:48:29.437Z,11.40
2018-07-12T00:50:56.791Z,11.30
2018-07-12T00:53:24.182Z,11.30
2018-07-12T00:55:51.566Z,11.20
2018-07-12T00:58:18.923Z,11.10
2018-07-12T01:00:46.313Z,11.10
2018-07-12T01:03:13.674Z,11.10
2018-07-12T01:05:41.023Z,11.00
2018-07-12T01:08:08.435Z,11.00
2018-07-12T01:10:35.840Z,11.00
2018-07-12T01:13:03.213Z,11.10
2018-07-12T01:15:30.609Z,11.10
2018-07-12T01:17:57.990Z,11.10
2018-07-12T01:20:25.425Z,11.10
2018-07-12T01:22:52.886Z,11.00
2018-07-12T01:25:20.223Z,11.00
2018-07-12T01:27:47.619Z,11.00
2018-07-12T01:30:14.991Z,11.00
2018-07-12T01:32:42.403Z,11.00
2018-07-12T01:35:09.746Z,11.00
2018-07-12T01:37:37.103Z,11.10
2018-07-12T01:40:04.486Z,11.10
2018-07-12T01:42:31.890Z,11.10
2018-07-12T01:44:59.266Z,11.20
2018-07-12T01:47:26.671Z,11.20
2018-07-12T01:49:54.014Z,11.20
2018-07-12T01:52:21.759Z,11.30
2018-07-12T01:54:49.094Z,11.30
2018-07-12T01:57:16.460Z,11.40
2018-07-12T01:59:43.806Z,11.40
2018-07-12T02:02:11.173Z,11.40
2018-07-12T02:04:38.573Z,11.50
2018-07-12T02:07:05.954Z,11.50
2018-07-12T02:09:33.306Z,11.50
2018-07-12T02:12:00.658Z,11.50
2018-07-12T02:14:28.027Z,11.60
2018-07-12T02:16:55.408Z,11.60
2018-07-12T02:19:22.821Z,11.60
2018-07-12T02:21:50.209Z,11.60
2018-07-12T02:24:17.582Z,11.60
2018-07-12T02:26:44.970Z,11.70
2018-07-12T02:29:12.343Z,11.70
2018-07-12T02:31:39.715Z,11.70
2018-07-12T02:34:07.103Z,11.70
2018-07-12T02:36:34.482Z,11.70
2018-07-12T02:39:01.850Z,11.70
2018-07-12T02:41:29.202Z,11.70
2018-07-12T02:43:56.562Z,11.70
2018-07-12T02:46:23.899Z,11.70
2018-07-12T02:48:51.275Z,11.70
2018-07-12T02:51:18.628Z,11.70
2018-07-12T02:53:46.027Z,11.70
2018-07-12T02:56:13.413Z,11.70
2018-07-12T02:58:40.795Z,11.80
2018-07-12T03:01:08.217Z,11.80
2018-07-12T03:03:35.593Z,11.80
2018-07-12T03:06:02.932Z,11.80
2018-07-12T03:08:30.282Z,11.80
2018-07-12T03:10:57.615Z,11.80
2018-07-12T03:13:24.996Z,11.80
2018-07-12T03:15:52.399Z,11.80
2018-07-12T03:18:19.800Z,11.80
2018-07-12T03:23:15.178Z,11.80
2018-07-12T03:25:42.551Z,11.80
2018-07-12T03:28:09.954Z,11.80
2018-07-12T03:30:37.348Z,11.90
2018-07-12T03:33:04.692Z,11.80
2018-07-12T03:35:32.059Z,11.80
2018-07-12T03:37:59.446Z,11.80
2018-07-12T03:40:26.894Z,11.80
2018-07-12T03:42:54.200Z,11.90
2018-07-12T03:45:21.551Z,11.80
2018-07-12T03:47:48.983Z,11.80
2018-07-12T03:50:16.428Z,11.80
2018-07-12T03:52:43.787Z,11.80
2018-07-12T03:55:11.130Z,11.80
2018-07-12T03:57:38.510Z,11.80
2018-07-12T04:00:05.887Z,11.80
2018-07-12T04:02:33.286Z,11.80
2018-07-12T04:07:28.339Z,11.80
2018-07-12T04:09:55.754Z,11.80
2018-07-12T04:12:23.097Z,11.80
2018-07-12T04:14:50.457Z,11.80
2018-07-12T04:17:22.283Z,11.80
2018-07-12T04:19:49.697Z,11.90
2018-07-12T04:22:17.049Z,11.90
2018-07-12T04:24:44.415Z,11.90
2018-07-12T04:27:11.758Z,11.90
2018-07-12T04:29:39.118Z,11.90
2018-07-12T04:32:06.542Z,11.90
2018-07-12T04:34:33.958Z,12.00
2018-07-12T04:37:01.343Z,12.00
2018-07-12T04:39:28.753Z,12.00
2018-07-12T04:41:56.185Z,12.00
2018-07-12T04:44:24.025Z,12.10
2018-07-12T04:49:19.398Z,12.20
2018-07-12T04:51:46.783Z,12.20
2018-07-12T04:54:14.175Z,12.20
2018-07-12T04:56:41.523Z,12.20
2018-07-12T04:59:08.934Z,12.20
2018-07-12T05:01:36.348Z,12.30
2018-07-12T05:04:03.694Z,12.30
2018-07-12T05:06:31.554Z,12.30
2018-07-12T05:08:58.911Z,12.20
2018-07-12T05:11:26.270Z,12.20
2018-07-12T05:13:54.476Z,12.30
2018-07-12T05:16:22.452Z,12.30
2018-07-12T05:18:49.827Z,12.40
2018-07-12T05:21:17.307Z,12.40
2018-07-12T05:23:44.846Z,12.40
2018-07-12T05:26:12.222Z,12.40
2018-07-12T05:28:39.617Z,12.50
2018-07-12T05:31:07.291Z,12.50
2018-07-12T05:33:34.682Z,12.60
2018-07-12T05:36:14.425Z,12.70
2018-07-12T05:41:11.347Z,12.80
2018-07-12T05:43:40.235Z,12.90
2018-07-12T05:46:08.786Z,13.00
2018-07-12T05:48:37.291Z,13.00
2018-07-12T05:51:05.986Z,13.10
2018-07-12T05:53:34.522Z,13.00
2018-07-12T05:56:03.074Z,13.10
2018-07-12T05:58:31.674Z,13.10
2018-07-12T06:01:00.310Z,13.10
2018-07-12T06:03:28.843Z,13.20
2018-07-12T06:05:57.419Z,13.20
2018-07-12T06:08:25.930Z,13.20
2018-07-12T06:10:54.523Z,13.30
2018-07-12T06:13:23.106Z,13.30
2018-07-12T06:15:51.779Z,13.30
2018-07-12T06:18:20.391Z,13.40
2018-07-12T06:20:48.957Z,13.50
2018-07-12T06:23:17.477Z,13.60
2018-07-12T06:25:45.972Z,13.80
2018-07-12T06:28:14.491Z,13.90
2018-07-12T06:30:43.043Z,14.00
2018-07-12T06:33:11.571Z,14.00
2018-07-12T06:35:40.084Z,14.10
2018-07-12T06:38:08.598Z,14.20
2018-07-12T06:40:37.170Z,14.30
2018-07-12T06:43:05.902Z,14.20
2018-07-12T06:45:34.447Z,14.30
2018-07-12T06:48:02.943Z,14.30
2018-07-12T06:50:31.431Z,14.30
2018-07-12T06:52:59.951Z,14.40
2018-07-12T06:55:28.456Z,14.40
2018-07-12T06:57:56.987Z,14.40
2018-07-12T07:00:25.507Z,14.30
2018-07-12T07:02:54.034Z,14.30
2018-07-12T07:05:22.520Z,14.40
2018-07-12T07:07:51.074Z,14.50
2018-07-12T07:10:19.603Z,14.50
2018-07-12T07:12:48.203Z,14.70
2018-07-12T07:15:16.761Z,14.80
2018-07-12T07:17:45.328Z,15.10
2018-07-12T07:20:13.904Z,15.30
2018-07-12T07:22:42.528Z,15.50
2018-07-12T07:25:11.111Z,15.70
2018-07-12T07:27:39.727Z,15.80
2018-07-12T07:30:08.267Z,16.10
2018-07-12T07:32:36.830Z,16.20
2018-07-12T07:35:05.380Z,16.60
2018-07-12T07:40:02.083Z,17.60
2018-07-12T07:42:30.639Z,17.30
2018-07-12T07:44:59.156Z,17.50
2018-07-12T07:47:27.671Z,17.50
2018-07-12T07:49:56.171Z,17.50
2018-07-12T07:52:24.770Z,17.70
2018-07-12T07:54:53.275Z,18.00
2018-07-12T07:57:21.819Z,18.60
2018-07-12T07:59:50.337Z,18.90
2018-07-12T08:02:18.866Z,19.70
2018-07-12T08:04:47.447Z,20.30
2018-07-12T08:09:44.259Z,20.20
2018-07-12T08:12:12.985Z,20.60
2018-07-12T08:14:41.790Z,20.70
2018-07-12T08:19:38.462Z,21.30
2018-07-12T08:22:08.707Z,21.20
2018-07-12T08:24:37.333Z,21.20
2018-07-12T08:27:06.251Z,21.00
2018-07-12T08:29:34.903Z,20.50
2018-07-12T08:32:04.619Z,20.30
2018-07-12T08:34:33.327Z,19.90
2018-07-12T08:37:01.823Z,20.40
2018-07-12T08:39:30.307Z,20.70
2018-07-12T08:41:58.790Z,20.80
2018-07-12T08:44:27.287Z,21.10
2018-07-12T08:46:55.759Z,21.90
2018-07-12T08:49:24.246Z,22.80
2018-07-12T08:51:52.755Z,22.50
2018-07-12T08:54:21.243Z,22.20
2018-07-12T08:56:49.703Z,21.80
2018-07-12T08:59:18.250Z,21.70
2018-07-12T09:01:46.791Z,21.50
2018-07-12T09:04:15.542Z,21.50
2018-07-12T09:06:44.074Z,22.50
2018-07-12T09:09:12.567Z,22.40
2018-07-12T09:11:41.040Z,22.40
2018-07-12T09:14:09.523Z,22.30
2018-07-12T09:16:37.988Z,22.60
2018-07-12T09:19:06.576Z,22.10
2018-07-12T09:21:35.583Z,22.10
2018-07-12T09:24:04.301Z,22.50
2018-07-12T09:26:32.942Z,22.80
2018-07-12T09:29:01.544Z,23.70
2018-07-12T09:31:30.135Z,23.40
2018-07-12T09:33:58.743Z,23.40
2018-07-12T09:36:27.327Z,22.90
2018-07-12T09:38:55.897Z,22.00
2018-07-12T09:41:25.000Z,21.80
2018-07-12T09:43:53.742Z,21.90
2018-07-12T09:46:22.350Z,21.60
2018-07-12T09:48:52.084Z,21.20
2018-07-12T09:51:20.669Z,21.00
2018-07-12T09:53:49.230Z,20.40
2018-07-12T09:56:17.930Z,19.90
2018-07-12T09:58:46.360Z,20.10
2018-07-12T10:01:20.413Z,20.70
2018-07-12T10:03:53.441Z,21.70
2018-07-12T10:08:59.910Z,22.20
2018-07-12T10:11:33.761Z,22.60
2018-07-12T10:14:07.640Z,22.40
2018-07-12T10:16:41.486Z,21.80
2018-07-12T10:19:10.145Z,21.50
2018-07-12T10:21:38.798Z,21.30
2018-07-12T10:24:07.360Z,22.10
2018-07-12T10:26:36.388Z,22.80
2018-07-12T10:29:04.980Z,23.40
2018-07-12T10:31:33.584Z,24.20
2018-07-12T10:34:02.160Z,24.90
2018-07-12T10:36:30.748Z,25.20
2018-07-12T10:38:59.311Z,24.80
2018-07-12T10:41:27.910Z,25.30
2018-07-12T10:43:56.536Z,24.70
2018-07-12T10:46:25.139Z,24.50
2018-07-12T10:48:53.705Z,24.10
2018-07-12T10:51:22.318Z,23.60
2018-07-12T10:53:50.954Z,23.60
2018-07-12T10:56:19.620Z,23.20
2018-07-12T10:58:48.243Z,23.10
2018-07-12T11:01:16.800Z,23.80
2018-07-12T11:03:45.550Z,24.40
2018-07-12T11:06:14.196Z,23.90
2018-07-12T11:08:42.749Z,23.70
2018-07-12T11:11:11.362Z,24.10
2018-07-12T11:13:48.364Z,24.70
2018-07-12T11:16:16.980Z,24.20
2018-07-12T11:18:45.556Z,23.80
2018-07-12T11:21:14.939Z,23.40
2018-07-12T11:23:43.486Z,23.10
2018-07-12T11:26:12.582Z,22.80
2018-07-12T11:28:41.665Z,22.50
2018-07-12T11:31:10.403Z,22.60
2018-07-12T11:33:40.998Z,23.50
2018-07-12T11:36:09.935Z,24.60
2018-07-12T11:38:39.476Z,25.70
2018-07-12T11:41:08.611Z,26.50
2018-07-12T11:46:07.818Z,25.60
2018-07-12T11:48:37.975Z,25.10
2018-07-12T11:51:07.636Z,25.40
2018-07-12T11:53:36.248Z,26.30
2018-07-12T11:56:04.871Z,26.60
2018-07-12T11:58:33.527Z,26.70
2018-07-12T12:01:02.308Z,26.10
2018-07-12T12:03:31.411Z,25.70
2018-07-12T12:06:00.008Z,25.90
2018-07-12T12:08:28.583Z,26.40
2018-07-12T12:10:57.205Z,26.80
2018-07-12T12:13:25.804Z,26.80
2018-07-12T12:15:54.427Z,26.10
2018-07-12T12:18:23.016Z,26.00
2018-07-12T12:20:51.529Z,25.20
2018-07-12T12:23:20.131Z,25.20
2018-07-12T12:25:48.703Z,24.20
2018-07-12T12:28:17.320Z,24.00
2018-07-12T12:30:46.011Z,24.60
2018-07-12T12:33:14.574Z,25.00
2018-07-12T12:35:43.095Z,25.60
2018-07-12T12:38:11.638Z,26.30
2018-07-12T12:40:40.185Z,26.00
2018-07-12T12:43:08.786Z,25.70
2018-07-12T12:45:37.366Z,26.00
2018-07-12T12:48:06.015Z,25.70
2018-07-12T12:50:34.571Z,25.80
2018-07-12T12:55:31.399Z,26.20
2018-07-12T12:57:59.984Z,26.90
2018-07-12T13:00:28.487Z,26.40
2018-07-12T13:02:57.069Z,26.10
2018-07-12T13:05:25.620Z,26.40
2018-07-12T13:07:54.237Z,26.70
2018-07-12T13:10:22.827Z,26.70
2018-07-12T13:12:51.467Z,26.70
2018-07-12T13:15:20.053Z,26.10
2018-07-12T13:17:48.690Z,25.70
2018-07-12T13:20:17.321Z,25.90
2018-07-12T13:22:45.932Z,26.30
2018-07-12T13:25:14.508Z,26.00
2018-07-12T13:27:43.150Z,25.80
2018-07-12T13:30:11.703Z,26.10
2018-07-12T13:32:40.319Z,26.60
2018-07-12T13:35:08.923Z,27.00
2018-07-12T13:37:37.562Z,27.20
2018-07-12T13:40:06.299Z,27.00
2018-07-12T13:42:34.867Z,26.60
2018-07-12T13:45:03.617Z,27.20
2018-07-12T13:47:32.220Z,27.30
2018-07-12T13:50:00.792Z,26.90
2018-07-12T13:52:29.379Z,27.30
2018-07-12T13:54:58.505Z,27.10
2018-07-12T13:57:27.180Z,26.60
2018-07-12T13:59:55.965Z,26.60
2018-07-12T14:02:24.597Z,26.20
2018-07-12T14:04:53.403Z,26.20
2018-07-12T14:07:22.864Z,26.40
2018-07-12T14:12:19.711Z,26.50
2018-07-12T14:14:48.413Z,26.60
2018-07-12T14:17:17.112Z,26.60
2018-07-12T14:19:45.805Z,26.70
2018-07-12T14:22:14.456Z,26.80
2018-07-12T14:24:43.062Z,26.60
2018-07-12T14:27:12.015Z,26.90
2018-07-12T14:29:40.801Z,27.10
2018-07-12T14:32:09.617Z,27.10
2018-07-12T14:34:38.299Z,26.70
2018-07-12T14:37:06.983Z,26.40
2018-07-12T14:39:35.635Z,25.80
2018-07-12T14:42:04.532Z,26.00
2018-07-12T14:44:33.251Z,26.00
2018-07-12T14:47:02.129Z,25.90
2018-07-12T14:49:30.849Z,25.50
2018-07-12T14:51:59.563Z,25.70
2018-07-12T14:54:28.310Z,25.50
2018-07-12T14:56:57.084Z,25.30
2018-07-12T14:59:25.788Z,25.40
2018-07-12T15:01:54.487Z,25.20
2018-07-12T15:04:23.063Z,25.20
2018-07-12T15:06:51.713Z,24.70
2018-07-12T15:09:20.548Z,24.60
2018-07-12T15:11:49.060Z,24.90
2018-07-12T15:14:17.731Z,24.80
2018-07-12T15:16:46.301Z,24.40
2018-07-12T15:19:14.962Z,24.40
2018-07-12T15:21:43.881Z,24.60
2018-07-12T15:24:12.418Z,24.50
2018-07-12T15:26:40.936Z,24.50
2018-07-12T15:29:09.519Z,24.80
2018-07-12T15:31:38.212Z,25.10
2018-07-12T15:34:06.679Z,25.10
2018-07-12T15:36:35.228Z,25.20
2018-07-12T15:39:04.916Z,25.30
2018-07-12T15:41:33.452Z,25.40
2018-07-12T15:44:02.020Z,25.30
2018-07-12T15:46:30.855Z,25.10
2018-07-12T15:48:59.383Z,24.90
2018-07-12T15:51:27.941Z,24.90
2018-07-12T15:53:56.478Z,24.90
2018-07-12T15:56:25.051Z,24.90
2018-07-12T15:58:53.567Z,24.80
2018-07-12T16:01:22.146Z,24.70
2018-07-12T16:03:50.643Z,24.60
2018-07-12T16:06:19.179Z,24.40
2018-07-12T16:08:47.668Z,24.00
2018-07-12T16:11:16.356Z,24.00
2018-07-12T16:13:44.843Z,24.10
2018-07-12T16:16:13.388Z,24.20
2018-07-12T16:18:41.923Z,24.10
2018-07-12T16:21:10.433Z,24.00
2018-07-12T16:23:38.960Z,24.00
2018-07-12T16:26:07.524Z,24.00
2018-07-12T16:28:36.123Z,23.90
2018-07-12T16:31:04.663Z,23.70
2018-07-12T16:33:33.196Z,23.60
2018-07-12T16:36:01.847Z,23.50
2018-07-12T16:38:30.403Z,23.50
2018-07-12T16:40:58.947Z,23.50
2018-07-12T16:43:27.445Z,23.30
2018-07-12T16:45:55.947Z,23.30
2018-07-12T16:48:24.456Z,23.20
2018-07-12T16:50:53.016Z,23.20
2018-07-12T16:53:21.523Z,23.20
2018-07-12T16:55:50.054Z,23.10
2018-07-12T16:58:18.574Z,22.90
2018-07-12T17:03:15.298Z,23.00
2018-07-12T17:05:43.815Z,23.10
2018-07-12T17:08:12.382Z,23.10
2018-07-12T17:10:40.876Z,23.10
2018-07-12T17:13:09.371Z,23.10
2018-07-12T17:15:37.896Z,23.10
2018-07-12T17:18:06.427Z,23.10
2018-07-12T17:20:34.920Z,23.00
2018-07-12T17:23:03.555Z,22.90
2018-07-12T17:25:32.023Z,22.90
2018-07-12T17:28:00.645Z,22.70
2018-07-12T17:30:29.128Z,22.60
2018-07-12T17:32:57.645Z,22.50
2018-07-12T17:35:26.114Z,22.30
2018-07-12T17:37:54.650Z,22.20
2018-07-12T17:40:23.372Z,21.90
2018-07-12T17:42:51.895Z,21.80
2018-07-12T17:45:20.403Z,21.70
2018-07-12T17:47:49.006Z,21.60
2018-07-12T17:50:17.452Z,21.50
2018-07-12T17:52:45.963Z,21.40
2018-07-12T17:55:14.498Z,21.30
2018-07-12T17:57:43.036Z,21.10
2018-07-12T18:00:11.515Z,21.10
2018-07-12T18:02:39.998Z,21.00
2018-07-12T18:05:08.495Z,20.90
2018-07-12T18:07:37.073Z,20.80
2018-07-12T18:10:05.923Z,20.70
2018-07-12T18:12:34.467Z,20.60
2018-07-12T18:15:03.070Z,20.50
2018-07-12T18:17:31.589Z,20.40
2018-07-12T18:20:00.111Z,20.30
2018-07-12T18:22:28.618Z,20.20
2018-07-12T18:24:57.143Z,20.10
2018-07-12T18:27:25.667Z,20.00
2018-07-12T18:29:54.173Z,19.90
2018-07-12T18:32:22.746Z,19.80
2018-07-12T18:34:51.231Z,19.70
2018-07-12T18:37:19.779Z,19.70
2018-07-12T18:39:48.274Z,19.60
2018-07-12T18:42:16.757Z,19.50
2018-07-12T18:44:45.222Z,19.30
2018-07-12T18:47:13.757Z,19.20
2018-07-12T18:49:42.248Z,19.10
2018-07-12T18:52:10.797Z,18.90
2018-07-12T18:54:39.550Z,18.80
2018-07-12T18:57:08.258Z,18.60
2018-07-12T18:59:36.810Z,18.50
2018-07-12T19:02:05.311Z,18.40
2018-07-12T19:04:33.843Z,18.20
2018-07-12T19:07:02.347Z,18.10
2018-07-12T19:09:30.876Z,18.00
2018-07-12T19:11:59.375Z,17.90
2018-07-12T19:14:32.552Z,17.80
2018-07-12T19:17:01.050Z,17.70
2018-07-12T19:19:29.646Z,17.50
2018-07-12T19:21:58.173Z,17.40
2018-07-12T19:24:26.666Z,17.30
2018-07-12T19:26:55.383Z,17.20
2018-07-12T19:29:23.874Z,17.10
2018-07-12T19:31:52.987Z,16.90
2018-07-12T19:34:21.705Z,16.90
2018-07-12T19:36:50.436Z,16.80
2018-07-12T19:39:18.973Z,16.70
2018-07-12T19:41:47.536Z,16.60
2018-07-12T19:44:16.167Z,16.50
2018-07-12T19:46:44.800Z,16.40
2018-07-12T19:49:13.455Z,16.30
2018-07-12T19:51:41.963Z,16.20
2018-07-12T19:54:10.456Z,16.20
2018-07-12T19:56:39.150Z,16.10
2018-07-12T19:59:07.663Z,16.00
2018-07-12T20:01:36.211Z,16.00
2018-07-12T20:04:04.867Z,15.90
2018-07-12T20:06:33.428Z,15.80
2018-07-12T20:09:02.012Z,15.70
2018-07-12T20:11:30.559Z,15.60
2018-07-12T20:13:59.115Z,15.60
2018-07-12T20:16:27.640Z,15.50
2018-07-12T20:18:56.527Z,15.40
2018-07-12T20:21:25.183Z,15.40
2018-07-12T20:23:53.752Z,15.30
2018-07-12T20:26:22.554Z,15.20
2018-07-12T20:28:51.080Z,15.20
2018-07-12T20:31:19.666Z,15.20
2018-07-12T20:33:48.280Z,15.10
2018-07-12T20:36:16.870Z,15.00
2018-07-12T20:38:45.416Z,15.00
2018-07-12T20:41:13.971Z,14.90
2018-07-12T20:43:42.503Z,14.80
2018-07-12T20:46:11.056Z,14.70
2018-07-12T20:48:39.587Z,14.70
2018-07-12T20:51:08.119Z,14.60
2018-07-12T20:53:36.733Z,14.50
2018-07-12T20:56:05.322Z,14.40
2018-07-12T20:58:33.843Z,14.40
2018-07-12T21:01:02.414Z,14.30
2018-07-12T21:03:31.001Z,14.30
2018-07-12T21:06:00.030Z,14.20
2018-07-12T21:08:28.609Z,14.20
2018-07-12T21:10:57.132Z,14.10
2018-07-12T21:13:25.616Z,14.10
2018-07-12T21:15:54.152Z,14.10
2018-07-12T21:18:22.718Z,14.10
2018-07-12T21:20:51.431Z,14.00
2018-07-12T21:23:19.932Z,14.00
2018-07-12T21:25:48.467Z,13.90
2018-07-12T21:28:17.006Z,13.90
2018-07-12T21:30:45.557Z,13.90
2018-07-12T21:33:14.093Z,13.90
2018-07-12T21:35:42.635Z,13.80
2018-07-12T21:38:11.294Z,13.80
2018-07-12T21:40:40.380Z,13.70
2018-07-12T21:43:09.399Z,13.70
2018-07-12T21:45:38.212Z,13.60
2018-07-12T21:48:06.992Z,13.60
2018-07-12T21:50:35.483Z,13.60
2018-07-12T21:53:04.215Z,13.60
2018-07-12T21:55:33.184Z,13.50
2018-07-12T21:58:01.785Z,13.50
2018-07-12T22:03:00.927Z,13.60
2018-07-12T22:05:29.657Z,13.60
2018-07-12T22:08:11.738Z,13.70
2018-07-12T22:10:40.920Z,13.80
2018-07-12T22:13:10.627Z,13.80
2018-07-12T22:15:39.352Z,13.80
2018-07-12T22:20:36.864Z,13.90
2018-07-12T22:23:05.595Z,14.00
2018-07-12T22:25:34.147Z,14.00
2018-07-12T22:28:03.059Z,14.00
2018-07-12T22:30:32.057Z,14.00
2018-07-12T22:33:01.721Z,14.00
2018-07-12T22:35:30.410Z,14.00
2018-07-12T22:38:00.154Z,14.00
2018-07-12T22:40:29.179Z,14.00
2018-07-12T22:42:58.454Z,14.00
2018-07-12T22:45:27.292Z,14.00
2018-07-12T22:47:56.218Z,14.00
2018-07-12T22:50:24.988Z,14.00
2018-07-12T22:52:54.205Z,14.00
2018-07-12T22:55:23.137Z,14.00
2018-07-12T22:57:51.993Z,13.90
2018-07-12T23:00:20.668Z,13.90
2018-07-12T23:02:49.795Z,13.90
2018-07-12T23:05:26.633Z,13.90
2018-07-12T23:07:55.144Z,13.90
2018-07-12T23:10:23.643Z,14.00
2018-07-12T23:12:52.099Z,14.00
2018-07-12T23:15:20.599Z,14.00
2018-07-12T23:17:49.099Z,14.00
2018-07-12T23:20:17.606Z,14.00
2018-07-12T23:22:46.103Z,14.00
2018-07-12T23:25:14.621Z,13.90
2018-07-12T23:27:43.123Z,13.90
2018-07-12T23:30:11.612Z,13.90
2018-07-12T23:32:40.139Z,13.90
2018-07-12T23:35:08.656Z,13.90
2018-07-12T23:37:37.137Z,13.80
2018-07-12T23:40:05.715Z,13.90
2018-07-12T23:42:34.223Z,13.80
2018-07-12T23:45:02.709Z,13.80
2018-07-12T23:47:31.207Z,13.80
2018-07-12T23:49:59.702Z,13.80
2018-07-12T23:52:28.229Z,13.70
2018-07-12T23:54:56.746Z,13.60
2018-07-12T23:57:25.263Z,13.60
2018-07-12T23:59:53.739Z,13.60
